METAR Data
IDs: Format: Raw Decoded Include TAF

Data at: 1155 UTC 07 Oct 2022

ZLXY 071100Z 14002MPS 4500 BR FEW012 OVC050 11/09 Q1023 NOSIG